createdAt,value
2023-02-01T00:01:15.006Z,99481.00
2023-02-01T00:03:41.891Z,99455.00
2023-02-01T00:06:16.015Z,99468.00
2023-02-01T00:08:42.919Z,99417.00
2023-02-01T00:11:18.087Z,99468.00
2023-02-01T00:13:44.984Z,99460.00
2023-02-01T00:16:13.884Z,99460.00
2023-02-01T00:18:47.051Z,99448.00
2023-02-01T00:21:21.266Z,99449.00
2023-02-01T00:23:55.017Z,99440.00
2023-02-01T00:26:43.784Z,99462.00
2023-02-01T00:29:26.003Z,99448.00
2023-02-01T00:31:53.426Z,99455.00
2023-02-01T00:34:27.023Z,99447.00
2023-02-01T00:36:53.917Z,99434.00
2023-02-01T00:39:20.862Z,99445.00
2023-02-01T00:41:54.025Z,99441.00
2023-02-01T00:44:20.935Z,99451.00
2023-02-01T00:46:54.035Z,99446.00
2023-02-01T00:49:21.084Z,99431.00
2023-02-01T00:51:54.030Z,99453.00
2023-02-01T00:54:27.066Z,99448.00
2023-02-01T00:56:53.972Z,99448.00
2023-02-01T00:59:27.060Z,99430.00
2023-02-01T01:01:54.041Z,99428.00
2023-02-01T01:04:27.058Z,99433.00
2023-02-01T01:07:00.108Z,99446.00
2023-02-01T01:09:27.053Z,99426.00
2023-02-01T01:11:53.975Z,99418.00
2023-02-01T01:14:27.077Z,99428.00
2023-02-01T01:16:53.989Z,99421.00
2023-02-01T01:19:26.995Z,99442.00
2023-02-01T01:22:00.131Z,99423.00
2023-02-01T01:24:27.106Z,99426.00
2023-02-01T01:27:00.059Z,99425.00
2023-02-01T01:29:33.043Z,99412.00
2023-02-01T01:32:00.037Z,99431.00
2023-02-01T01:34:33.081Z,99450.00
2023-02-01T01:37:00.015Z,99458.00
2023-02-01T01:39:33.170Z,99456.00
2023-02-01T01:42:00.740Z,99451.00
2023-02-01T01:45:12.045Z,99457.00
2023-02-01T01:47:47.341Z,99447.00
2023-02-01T01:50:25.063Z,99441.00
2023-02-01T01:52:59.037Z,99445.00
2023-02-01T01:55:34.097Z,99461.00
2023-02-01T01:58:04.635Z,99446.00
2023-02-01T02:00:38.154Z,99449.00
2023-02-01T02:03:12.297Z,99456.00
2023-02-01T02:05:46.082Z,99430.00
2023-02-01T02:08:13.091Z,99441.00
2023-02-01T02:10:47.053Z,99433.00
2023-02-01T02:13:15.161Z,99415.00
2023-02-01T02:15:56.089Z,99450.00
2023-02-01T02:19:15.155Z,99433.00
2023-02-01T02:22:22.078Z,99416.00
2023-02-01T02:25:25.125Z,99414.00
2023-02-01T02:28:19.141Z,99435.00
2023-02-01T02:31:44.229Z,99446.00
2023-02-01T02:34:33.115Z,99409.00
2023-02-01T02:37:43.980Z,99415.00
2023-02-01T02:40:29.143Z,99429.00
2023-02-01T02:43:20.059Z,99426.00
2023-02-01T02:46:09.171Z,99412.00
2023-02-01T02:49:31.055Z,99414.00
2023-02-01T02:52:13.906Z,99418.00
2023-02-01T02:54:51.106Z,99420.00
2023-02-01T02:57:25.805Z,99399.00
2023-02-01T02:59:59.100Z,99405.00
2023-02-01T03:02:27.615Z,99395.00
2023-02-01T03:05:02.131Z,99361.00
2023-02-01T03:07:53.192Z,99410.00
2023-02-01T03:10:52.127Z,99409.00
2023-02-01T03:13:54.023Z,99406.00
2023-02-01T03:16:39.201Z,99404.00
2023-02-01T03:19:34.067Z,99407.00
2023-02-01T03:22:04.557Z,99415.00
2023-02-01T03:25:01.202Z,99416.00
2023-02-01T03:27:51.828Z,99411.00
2023-02-01T03:30:30.133Z,99408.00
2023-02-01T03:32:59.945Z,99409.00
2023-02-01T03:36:13.093Z,99416.00
2023-02-01T03:39:09.088Z,99421.00
2023-02-01T03:41:50.122Z,99417.00
2023-02-01T03:44:22.752Z,99421.00
2023-02-01T03:47:17.169Z,99413.00
2023-02-01T03:49:50.902Z,99398.00
2023-02-01T03:53:00.110Z,99403.00
2023-02-01T03:55:27.027Z,99427.00
2023-02-01T03:58:21.152Z,99415.00
2023-02-01T04:00:58.766Z,99425.00
2023-02-01T04:03:33.132Z,99395.00
2023-02-01T04:06:00.097Z,99423.00
2023-02-01T04:08:33.128Z,99415.00
2023-02-01T04:11:00.046Z,99428.00
2023-02-01T04:13:33.151Z,99411.00
2023-02-01T04:16:00.036Z,99407.00
2023-02-01T04:18:26.902Z,99400.00
2023-02-01T04:21:00.162Z,99413.00
2023-02-01T04:23:27.163Z,99414.00
2023-02-01T04:25:54.130Z,99413.00
2023-02-01T04:28:27.134Z,99404.00
2023-02-01T04:31:00.326Z,99412.00
2023-02-01T04:33:27.390Z,99415.00
2023-02-01T04:36:01.144Z,99407.00
2023-02-01T04:38:28.041Z,99426.00
2023-02-01T04:41:01.138Z,99427.00
2023-02-01T04:43:34.139Z,99409.00
2023-02-01T04:46:01.094Z,99405.00
2023-02-01T04:48:34.272Z,99426.00
2023-02-01T04:51:01.311Z,99405.00
2023-02-01T04:53:35.206Z,99399.00
2023-02-01T04:56:02.158Z,99403.00
2023-02-01T04:58:35.104Z,99423.00
2023-02-01T05:01:06.941Z,99429.00
2023-02-01T05:03:41.197Z,99425.00
2023-02-01T05:06:08.128Z,99422.00
2023-02-01T05:08:35.954Z,99416.00
2023-02-01T05:11:10.156Z,99400.00
2023-02-01T05:13:37.123Z,99426.00
2023-02-01T05:16:04.452Z,99369.00
2023-02-01T05:18:38.141Z,99409.00
2023-02-01T05:21:12.224Z,99397.00
2023-02-01T05:23:52.164Z,99427.00
2023-02-01T05:26:19.207Z,99429.00
2023-02-01T05:28:52.181Z,99414.00
2023-02-01T05:31:19.350Z,99421.00
2023-02-01T05:33:53.203Z,99433.00
2023-02-01T05:36:26.228Z,99429.00
2023-02-01T05:38:53.126Z,99409.00
2023-02-01T05:41:26.199Z,99417.00
2023-02-01T05:43:53.153Z,99411.00
2023-02-01T05:46:20.190Z,99411.00
2023-02-01T05:48:54.206Z,99425.00
2023-02-01T05:51:21.175Z,99407.00
2023-02-01T05:53:54.158Z,99424.00
2023-02-01T05:56:21.114Z,99440.00
2023-02-01T05:58:54.293Z,99439.00
2023-02-01T06:01:28.274Z,99403.00
2023-02-01T06:03:55.332Z,99438.00
2023-02-01T06:06:22.274Z,99436.00
2023-02-01T06:08:56.199Z,99435.00
2023-02-01T06:11:32.653Z,99440.00
2023-02-01T06:14:06.248Z,99451.00
2023-02-01T06:16:33.213Z,99449.00
2023-02-01T06:19:06.331Z,99425.00
2023-02-01T06:21:33.363Z,99449.00
2023-02-01T06:24:07.126Z,99474.00
2023-02-01T06:26:34.546Z,99457.00
2023-02-01T06:29:08.220Z,99459.00
2023-02-01T06:31:35.281Z,99463.00
2023-02-01T06:34:02.457Z,99459.00
2023-02-01T06:36:36.479Z,99449.00
2023-02-01T06:39:09.876Z,99446.00
2023-02-01T06:41:43.326Z,99444.00
2023-02-01T06:44:17.149Z,99440.00
2023-02-01T06:46:44.149Z,99440.00
2023-02-01T06:49:17.561Z,99394.00
2023-02-01T06:51:44.507Z,99447.00
2023-02-01T06:54:18.141Z,99454.00
2023-02-01T06:56:45.029Z,99441.00
2023-02-01T06:59:18.163Z,99451.00
2023-02-01T07:01:45.510Z,99433.00
2023-02-01T07:04:19.132Z,99438.00
2023-02-01T07:06:46.051Z,99431.00
2023-02-01T07:09:19.209Z,99440.00
2023-02-01T07:11:46.124Z,99443.00
2023-02-01T07:14:22.309Z,99446.00
2023-02-01T07:16:56.240Z,99448.00
2023-02-01T07:19:23.107Z,99441.00
2023-02-01T07:21:56.205Z,99438.00
2023-02-01T07:24:23.266Z,99461.00
2023-02-01T07:26:50.170Z,99446.00
2023-02-01T07:29:24.185Z,99440.00
2023-02-01T07:31:51.044Z,99444.00
2023-02-01T07:34:17.943Z,99453.00
2023-02-01T07:36:51.384Z,99449.00
2023-02-01T07:39:24.925Z,99440.00
2023-02-01T07:41:58.307Z,99427.00
2023-02-01T07:44:25.293Z,99436.00
2023-02-01T07:46:58.443Z,99435.00
2023-02-01T07:49:25.404Z,99417.00
2023-02-01T07:51:59.394Z,99429.00
2023-02-01T07:54:33.273Z,99446.00
2023-02-01T07:57:00.160Z,99439.00
2023-02-01T07:59:27.160Z,99440.00
2023-02-01T08:02:03.432Z,99427.00
2023-02-01T08:04:30.522Z,99425.00
2023-02-01T08:07:04.210Z,99438.00
2023-02-01T08:09:37.258Z,99393.00
2023-02-01T08:12:04.396Z,99424.00
2023-02-01T08:14:38.158Z,99438.00
2023-02-01T08:17:05.151Z,99410.00
2023-02-01T08:19:38.301Z,99424.00
2023-02-01T08:22:05.187Z,99417.00
2023-02-01T08:24:38.196Z,99440.00
2023-02-01T08:27:05.115Z,99415.00
2023-02-01T08:29:32.181Z,99429.00
2023-02-01T08:32:05.325Z,99433.00
2023-02-01T08:34:35.428Z,99427.00
2023-02-01T08:37:09.269Z,99435.00
2023-02-01T08:39:36.293Z,99440.00
2023-02-01T08:42:10.370Z,99421.00
2023-02-01T08:44:37.370Z,99431.00
2023-02-01T08:47:11.274Z,99457.00
2023-02-01T08:49:38.406Z,99459.00
2023-02-01T08:52:15.983Z,99443.00
2023-02-01T08:54:43.289Z,99451.00
2023-02-01T08:57:10.319Z,99438.00
2023-02-01T08:59:44.254Z,99441.00
2023-02-01T09:02:21.291Z,99439.00
2023-02-01T09:04:48.291Z,99470.00
2023-02-01T09:07:15.333Z,99445.00
2023-02-01T09:09:49.333Z,99447.00
2023-02-01T09:12:16.459Z,99449.00
2023-02-01T09:14:43.484Z,99449.00
2023-02-01T09:17:17.320Z,99463.00
2023-02-01T09:19:44.495Z,99462.00
2023-02-01T09:22:18.307Z,99454.00
2023-02-01T09:24:45.460Z,99484.00
2023-02-01T09:27:12.502Z,99449.00
2023-02-01T09:29:46.363Z,99475.00
2023-02-01T09:32:20.361Z,99456.00
2023-02-01T09:34:47.501Z,99435.00
2023-02-01T09:37:21.340Z,99460.00
2023-02-01T09:39:48.416Z,99449.00
2023-02-01T09:43:14.337Z,99454.00
2023-02-01T09:45:57.944Z,99444.00
2023-02-01T09:48:40.280Z,99418.00
2023-02-01T09:51:16.724Z,99451.00
2023-02-01T09:54:05.470Z,99434.00
2023-02-01T09:56:54.331Z,99454.00
2023-02-01T10:00:01.708Z,99448.00
2023-02-01T10:02:35.313Z,99455.00
2023-02-01T10:05:02.365Z,99440.00
2023-02-01T10:08:02.333Z,99466.00
2023-02-01T10:10:41.150Z,99426.00
2023-02-01T10:13:41.374Z,99418.00
2023-02-01T10:16:38.346Z,99461.00
2023-02-01T10:19:16.704Z,99468.00
2023-02-01T10:22:14.391Z,99464.00
2023-02-01T10:24:47.941Z,99463.00
2023-02-01T10:27:30.299Z,99446.00
2023-02-01T10:30:00.559Z,99445.00
2023-02-01T10:32:40.395Z,99487.00
2023-02-01T10:35:25.610Z,99468.00
2023-02-01T10:37:59.271Z,99469.00
2023-02-01T10:40:33.281Z,99473.00
2023-02-01T10:43:03.369Z,99468.00
2023-02-01T10:45:40.362Z,99453.00
2023-02-01T10:48:14.372Z,99482.00
2023-02-01T10:51:03.345Z,99447.00
2023-02-01T10:54:00.364Z,99467.00
2023-02-01T10:56:35.458Z,99455.00
2023-02-01T10:59:05.025Z,99464.00
2023-02-01T11:01:45.357Z,99456.00
2023-02-01T11:04:14.823Z,99466.00
2023-02-01T11:06:53.454Z,99452.00
2023-02-01T11:09:25.078Z,99448.00
2023-02-01T11:11:52.044Z,99469.00
2023-02-01T11:14:32.339Z,99472.00
2023-02-01T11:17:22.368Z,99463.00
2023-02-01T11:20:13.427Z,99469.00
2023-02-01T11:22:47.320Z,99476.00
2023-02-01T11:25:15.627Z,99451.00
2023-02-01T11:27:55.992Z,99440.00
2023-02-01T11:30:39.736Z,99461.00
2023-02-01T11:33:13.407Z,99460.00
2023-02-01T11:35:40.597Z,99441.00
2023-02-01T11:38:41.408Z,99430.00
2023-02-01T11:41:32.307Z,99445.00
2023-02-01T11:44:07.328Z,99436.00
2023-02-01T11:46:36.149Z,99450.00
2023-02-01T11:49:33.421Z,99428.00
2023-02-01T11:52:06.669Z,99425.00
2023-02-01T11:55:00.373Z,99431.00
2023-02-01T11:57:39.408Z,99423.00
2023-02-01T12:00:24.666Z,99410.00
2023-02-01T12:03:44.440Z,99426.00
2023-02-01T12:06:26.364Z,99413.00
2023-02-01T12:09:44.362Z,99396.00
2023-02-01T12:12:36.559Z,99417.00
2023-02-01T12:15:47.361Z,99410.00
2023-02-01T12:18:32.400Z,99394.00
2023-02-01T12:21:12.380Z,99398.00
2023-02-01T12:24:14.975Z,99408.00
2023-02-01T12:27:22.470Z,99403.00
2023-02-01T12:30:20.426Z,99375.00
2023-02-01T12:33:50.412Z,99377.00
2023-02-01T12:36:39.098Z,99380.00
2023-02-01T12:39:39.483Z,99376.00
2023-02-01T12:42:39.329Z,99375.00
2023-02-01T12:45:27.998Z,99363.00
2023-02-01T12:48:31.395Z,99356.00
2023-02-01T12:51:02.540Z,99359.00
2023-02-01T12:54:30.397Z,99365.00
2023-02-01T12:57:04.084Z,99352.00
2023-02-01T13:00:22.667Z,99359.00
2023-02-01T13:03:13.490Z,99359.00
2023-02-01T13:06:19.730Z,99358.00
2023-02-01T13:09:32.497Z,99358.00
2023-02-01T13:12:03.967Z,99342.00
2023-02-01T13:15:00.411Z,99324.00
2023-02-01T13:17:30.579Z,99351.00
2023-02-01T13:20:11.407Z,99308.00
2023-02-01T13:22:48.369Z,99330.00
2023-02-01T13:25:43.381Z,99332.00
2023-02-01T13:28:49.805Z,99341.00
2023-02-01T13:32:10.444Z,99324.00
2023-02-01T13:35:22.926Z,99309.00
2023-02-01T13:38:04.481Z,99324.00
2023-02-01T13:40:47.278Z,99338.00
2023-02-01T13:43:20.223Z,99334.00
2023-02-01T13:45:59.403Z,99325.00
2023-02-01T13:48:55.033Z,99330.00
2023-02-01T13:51:48.472Z,99339.00
2023-02-01T13:54:47.993Z,99326.00
2023-02-01T13:57:46.468Z,99308.00
2023-02-01T14:00:37.401Z,99323.00
2023-02-01T14:03:15.442Z,99325.00
2023-02-01T14:05:48.449Z,99320.00
2023-02-01T14:08:36.846Z,99334.00
2023-02-01T14:11:10.452Z,99321.00
2023-02-01T14:13:41.297Z,99321.00
2023-02-01T14:16:24.492Z,99326.00
2023-02-01T14:19:00.763Z,99317.00
2023-02-01T14:21:41.414Z,99348.00
2023-02-01T14:24:11.447Z,99345.00
2023-02-01T14:26:55.589Z,99342.00
2023-02-01T14:29:52.528Z,99343.00
2023-02-01T14:32:21.944Z,99348.00
2023-02-01T14:34:55.740Z,99353.00
2023-02-01T14:37:29.464Z,99349.00
2023-02-01T14:40:03.158Z,99344.00
2023-02-01T14:42:46.541Z,99343.00
2023-02-01T14:45:19.669Z,99349.00
2023-02-01T14:47:54.526Z,99347.00
2023-02-01T14:50:33.540Z,99356.00
2023-02-01T14:53:18.431Z,99333.00
2023-02-01T14:55:59.120Z,99344.00
2023-02-01T14:59:08.453Z,99352.00
2023-02-01T15:01:43.561Z,99331.00
2023-02-01T15:04:18.513Z,99340.00
2023-02-01T15:07:04.614Z,99345.00
2023-02-01T15:09:43.339Z,99335.00
2023-02-01T15:12:19.492Z,99344.00
2023-02-01T15:15:03.200Z,99337.00
2023-02-01T15:17:38.559Z,99346.00
2023-02-01T15:20:21.346Z,99352.00
2023-02-01T15:23:12.500Z,99339.00
2023-02-01T15:25:46.489Z,99360.00
2023-02-01T15:28:17.316Z,99358.00
2023-02-01T15:31:14.225Z,99364.00
2023-02-01T15:33:41.404Z,99352.00
2023-02-01T15:36:18.533Z,99352.00
2023-02-01T15:38:45.805Z,99360.00
2023-02-01T15:41:27.506Z,99364.00
2023-02-01T15:43:57.483Z,99364.00
2023-02-01T15:46:46.548Z,99362.00
2023-02-01T15:49:43.484Z,99353.00
2023-02-01T15:52:33.534Z,99354.00
2023-02-01T15:55:02.910Z,99338.00
2023-02-01T15:57:47.443Z,99351.00
2023-02-01T16:00:24.916Z,99331.00
2023-02-01T16:03:02.557Z,99356.00
2023-02-01T16:05:47.456Z,99372.00
2023-02-01T16:08:24.211Z,99374.00
2023-02-01T16:11:00.557Z,99384.00
2023-02-01T16:13:27.637Z,99366.00
2023-02-01T16:16:01.563Z,99353.00
2023-02-01T16:18:35.586Z,99344.00
2023-02-01T16:21:02.529Z,99389.00
2023-02-01T16:23:31.427Z,99394.00
2023-02-01T16:26:05.589Z,99372.00
2023-02-01T16:28:32.871Z,99366.00
2023-02-01T16:31:00.846Z,99373.00
2023-02-01T16:33:34.631Z,99351.00
2023-02-01T16:36:01.771Z,99383.00
2023-02-01T16:38:35.579Z,99380.00
2023-02-01T16:41:02.698Z,99379.00
2023-02-01T16:43:36.511Z,99376.00
2023-02-01T16:46:03.755Z,99381.00
2023-02-01T16:48:40.519Z,99365.00
2023-02-01T16:51:13.266Z,99384.00
2023-02-01T16:53:54.274Z,99390.00
2023-02-01T16:56:30.583Z,99380.00
2023-02-01T16:58:57.920Z,99388.00
2023-02-01T17:01:31.585Z,99397.00
2023-02-01T17:03:58.745Z,99410.00
2023-02-01T17:06:32.587Z,99379.00
2023-02-01T17:09:00.140Z,99363.00
2023-02-01T17:11:34.601Z,99413.00
2023-02-01T17:14:22.068Z,99416.00
2023-02-01T17:16:59.327Z,99414.00
2023-02-01T17:19:26.456Z,99410.00
2023-02-01T17:21:55.405Z,99408.00
2023-02-01T17:24:48.298Z,99387.00
2023-02-01T17:27:23.644Z,99415.00
2023-02-01T17:29:50.767Z,99399.00
2023-02-01T17:32:23.283Z,99368.00
2023-02-01T17:34:56.599Z,99367.00
2023-02-01T17:37:39.619Z,99390.00
2023-02-01T17:40:07.579Z,99378.00
2023-02-01T17:42:41.699Z,99373.00
2023-02-01T17:45:46.734Z,99406.00
2023-02-01T17:48:13.890Z,99408.00
2023-02-01T17:50:47.681Z,99388.00
2023-02-01T17:53:14.938Z,99386.00
2023-02-01T17:55:51.642Z,99370.00
2023-02-01T17:58:18.843Z,99366.00
2023-02-01T18:00:52.585Z,99400.00
2023-02-01T18:03:25.591Z,99400.00
2023-02-01T18:06:00.651Z,99368.00
2023-02-01T18:08:30.618Z,99363.00
2023-02-01T18:11:06.628Z,99371.00
2023-02-01T18:13:33.742Z,99378.00
2023-02-01T18:16:00.868Z,99400.00
2023-02-01T18:18:34.583Z,99384.00
2023-02-01T18:21:01.698Z,99401.00
2023-02-01T18:23:35.752Z,99415.00
2023-02-01T18:26:09.670Z,99416.00
2023-02-01T18:28:36.698Z,99403.00
2023-02-01T18:31:04.500Z,99423.00
2023-02-01T18:33:38.645Z,99365.00
2023-02-01T18:36:12.688Z,99397.00
2023-02-01T18:38:41.748Z,99384.00
2023-02-01T18:41:25.762Z,99393.00
2023-02-01T18:43:53.071Z,99328.00
2023-02-01T18:46:20.416Z,99328.00
2023-02-01T18:48:53.676Z,99340.00
2023-02-01T18:51:20.952Z,99351.00
2023-02-01T18:53:48.445Z,99402.00
2023-02-01T18:56:23.602Z,99407.00
2023-02-01T18:58:50.687Z,99399.00
2023-02-01T19:01:27.680Z,99392.00
2023-02-01T19:04:06.245Z,99394.00
2023-02-01T19:06:37.165Z,99372.00
2023-02-01T19:09:10.637Z,99398.00
2023-02-01T19:11:37.840Z,99378.00
2023-02-01T19:14:04.939Z,99400.00
2023-02-01T19:16:38.718Z,99378.00
2023-02-01T19:19:05.974Z,99383.00
2023-02-01T19:21:39.849Z,99384.00
2023-02-01T19:24:13.648Z,99377.00
2023-02-01T19:26:41.516Z,99384.00
2023-02-01T19:29:21.710Z,99371.00
2023-02-01T19:31:48.889Z,99410.00
2023-02-01T19:34:22.719Z,99395.00
2023-02-01T19:36:49.721Z,99400.00
2023-02-01T19:39:23.666Z,99412.00
2023-02-01T19:41:58.675Z,99433.00
2023-02-01T19:44:26.329Z,99412.00
2023-02-01T19:46:59.655Z,99446.00
2023-02-01T19:49:27.233Z,99411.00
2023-02-01T19:51:54.368Z,99431.00
2023-02-01T19:54:27.671Z,99396.00
2023-02-01T19:56:54.811Z,99411.00
2023-02-01T19:59:28.702Z,99426.00
2023-02-01T20:01:55.002Z,99425.00
2023-02-01T20:04:28.775Z,99430.00
2023-02-01T20:06:56.008Z,99432.00
2023-02-01T20:09:32.886Z,99395.00
2023-02-01T20:12:06.855Z,99437.00
2023-02-01T20:14:33.990Z,99407.00
2023-02-01T20:17:07.918Z,99413.00
2023-02-01T20:19:35.215Z,99414.00
2023-02-01T20:22:08.822Z,99448.00
2023-02-01T20:24:36.043Z,99427.00
2023-02-01T20:27:04.078Z,99423.00
2023-02-01T20:29:37.697Z,99430.00
2023-02-01T20:32:04.801Z,99456.00
2023-02-01T20:34:38.736Z,99418.00
2023-02-01T20:37:12.692Z,99427.00
2023-02-01T20:39:39.831Z,99424.00
2023-02-01T20:42:13.656Z,99420.00
2023-02-01T20:44:40.976Z,99399.00
2023-02-01T20:47:14.736Z,99429.00
2023-02-01T20:49:41.900Z,99413.00
2023-02-01T20:52:15.744Z,99408.00
2023-02-01T20:54:42.961Z,99411.00
2023-02-01T20:57:16.739Z,99434.00
2023-02-01T20:59:43.955Z,99410.00
2023-02-01T21:02:17.744Z,99438.00
2023-02-01T21:04:44.791Z,99437.00
2023-02-01T21:07:18.747Z,99440.00
2023-02-01T21:09:45.794Z,99441.00
2023-02-01T21:12:19.719Z,99450.00
2023-02-01T21:14:53.783Z,99438.00
2023-02-01T21:17:27.718Z,99459.00
2023-02-01T21:19:55.519Z,99451.00
2023-02-01T21:22:28.706Z,99433.00
2023-02-01T21:24:55.754Z,99466.00
2023-02-01T21:27:29.707Z,99447.00
2023-02-01T21:29:56.732Z,99443.00
2023-02-01T21:32:29.883Z,99448.00
2023-02-01T21:34:56.953Z,99440.00
2023-02-01T21:37:36.760Z,99433.00
2023-02-01T21:40:04.304Z,99464.00
2023-02-01T21:42:31.430Z,99428.00
2023-02-01T21:45:04.778Z,99441.00
2023-02-01T21:47:31.770Z,99427.00
2023-02-01T21:50:07.746Z,99450.00
2023-02-01T21:52:35.275Z,99457.00
2023-02-01T21:55:08.787Z,99454.00
2023-02-01T21:57:46.435Z,99422.00
2023-02-01T22:00:15.389Z,99440.00
2023-02-01T22:02:53.241Z,99435.00
2023-02-01T22:05:21.109Z,99424.00
2023-02-01T22:07:48.335Z,99431.00
2023-02-01T22:10:22.668Z,99435.00
2023-02-01T22:12:58.208Z,99464.00
2023-02-01T22:15:25.642Z,99419.00
2023-02-01T22:17:59.924Z,99444.00
2023-02-01T22:20:27.773Z,99456.00
2023-02-01T22:22:55.538Z,99488.00
2023-02-01T22:25:33.268Z,99462.00
2023-02-01T22:28:30.825Z,99454.00
2023-02-01T22:30:55.545Z,99450.00
2023-02-01T22:33:22.737Z,99465.00
2023-02-01T22:35:57.058Z,99461.00
2023-02-01T22:38:24.260Z,99489.00
2023-02-01T22:41:09.903Z,99468.00
2023-02-01T22:43:37.228Z,99479.00
2023-02-01T22:46:14.834Z,99480.00
2023-02-01T22:48:49.806Z,99478.00
2023-02-01T22:51:22.762Z,99455.00
2023-02-01T22:53:56.764Z,99479.00
2023-02-01T22:56:33.235Z,99485.00
2023-02-01T22:59:09.762Z,99481.00
2023-02-01T23:01:36.869Z,99442.00
2023-02-01T23:04:05.881Z,99455.00
2023-02-01T23:06:40.758Z,99505.00
2023-02-01T23:09:29.833Z,99468.00
2023-02-01T23:11:56.959Z,99491.00
2023-02-01T23:14:30.765Z,99446.00
2023-02-01T23:16:57.894Z,99468.00
2023-02-01T23:19:31.740Z,99465.00
2023-02-01T23:21:58.846Z,99482.00
2023-02-01T23:24:32.717Z,99491.00
2023-02-01T23:26:59.682Z,99501.00
2023-02-01T23:29:33.760Z,99498.00
2023-02-01T23:32:00.829Z,99484.00
2023-02-01T23:34:34.727Z,99485.00
2023-02-01T23:37:08.656Z,99503.00
2023-02-01T23:39:42.707Z,99468.00
2023-02-01T23:42:09.860Z,99485.00
2023-02-01T23:44:36.923Z,99479.00
2023-02-01T23:47:10.928Z,99466.00
2023-02-01T23:49:44.986Z,99482.00
2023-02-01T23:52:11.995Z,99493.00
2023-02-01T23:54:45.716Z,99490.00
2023-02-01T23:57:12.937Z,99448.00
2023-02-01T23:59:46.745Z,99456.00
